createdAt,value
2019-01-22T00:00:15.126Z,1009.53
2019-01-22T00:01:15.115Z,1009.50
2019-01-22T00:02:15.107Z,1009.47
2019-01-22T00:03:15.092Z,1009.50
2019-01-22T00:04:15.075Z,1009.48
2019-01-22T00:05:15.059Z,1009.45
2019-01-22T00:06:15.041Z,1009.40
2019-01-22T00:07:15.026Z,1009.39
2019-01-22T00:08:15.013Z,1009.37
2019-01-22T00:09:15.006Z,1009.36
2019-01-22T00:10:14.993Z,1009.31
2019-01-22T00:11:14.977Z,1009.32
2019-01-22T00:12:14.958Z,1009.25
2019-01-22T00:13:14.946Z,1009.26
2019-01-22T00:14:14.932Z,1009.22
2019-01-22T00:15:14.918Z,1009.22
2019-01-22T00:16:14.908Z,1009.20
2019-01-22T00:17:14.896Z,1009.16
2019-01-22T00:18:14.884Z,1009.18
2019-01-22T00:19:14.862Z,1009.16
2019-01-22T00:20:14.849Z,1009.09
2019-01-22T00:21:14.838Z,1009.10
2019-01-22T00:22:14.820Z,1009.08
2019-01-22T00:23:14.804Z,1009.08
2019-01-22T00:24:14.793Z,1009.05
2019-01-22T00:25:14.777Z,1009.09
2019-01-22T00:26:14.765Z,1009.05
2019-01-22T00:27:14.744Z,1009.03
2019-01-22T00:28:14.730Z,1008.99
2019-01-22T00:29:14.718Z,1008.98
2019-01-22T00:30:14.711Z,1008.96
2019-01-22T00:31:14.691Z,1008.94
2019-01-22T00:32:14.676Z,1008.92
2019-01-22T00:33:14.666Z,1008.92
2019-01-22T00:34:14.653Z,1008.89
2019-01-22T00:35:14.637Z,1008.88
2019-01-22T00:36:14.620Z,1008.86
2019-01-22T00:37:14.602Z,1008.90
2019-01-22T00:38:14.594Z,1008.92
2019-01-22T00:39:14.577Z,1008.90
2019-01-22T00:40:14.567Z,1008.92
2019-01-22T00:41:14.551Z,1008.90
2019-01-22T00:42:14.532Z,1008.88
2019-01-22T00:43:14.520Z,1008.91
2019-01-22T00:44:14.501Z,1008.92
2019-01-22T00:45:14.494Z,1008.95
2019-01-22T00:46:14.476Z,1008.93
2019-01-22T00:47:14.460Z,1008.93
2019-01-22T00:48:14.447Z,1008.94
2019-01-22T00:49:14.428Z,1008.94
2019-01-22T00:50:14.428Z,1008.93
2019-01-22T00:51:14.402Z,1008.90
2019-01-22T00:52:14.388Z,1008.89
2019-01-22T00:53:14.374Z,1008.82
2019-01-22T00:54:14.364Z,1008.79
2019-01-22T00:55:14.348Z,1008.78
2019-01-22T00:56:14.327Z,1008.79
2019-01-22T00:57:14.314Z,1008.75
2019-01-22T00:58:14.298Z,1008.78
2019-01-22T00:59:14.288Z,1008.77
2019-01-22T01:00:14.277Z,1008.78
2019-01-22T01:01:14.264Z,1008.76
2019-01-22T01:02:14.246Z,1008.75
2019-01-22T01:03:14.255Z,1008.75
2019-01-22T01:04:14.212Z,1008.71
2019-01-22T01:05:14.201Z,1008.70
2019-01-22T01:06:14.189Z,1008.71
2019-01-22T01:07:14.169Z,1008.69
2019-01-22T01:08:14.155Z,1008.67
2019-01-22T01:09:14.143Z,1008.68
2019-01-22T01:10:30.516Z,1008.66
2019-01-22T01:11:14.115Z,1008.65
2019-01-22T01:12:14.097Z,1008.62
2019-01-22T01:13:14.084Z,1008.57
2019-01-22T01:14:14.071Z,1008.61
2019-01-22T01:15:14.055Z,1008.54
2019-01-22T01:16:14.040Z,1008.55
2019-01-22T01:17:14.025Z,1008.47
2019-01-22T01:18:14.015Z,1008.48
2019-01-22T01:19:13.996Z,1008.47
2019-01-22T01:20:13.987Z,1008.48
2019-01-22T01:21:13.973Z,1008.45
2019-01-22T01:22:13.956Z,1008.42
2019-01-22T01:23:17.047Z,1008.44
2019-01-22T01:24:13.930Z,1008.41
2019-01-22T01:25:13.909Z,1008.36
2019-01-22T01:26:13.896Z,1008.40
2019-01-22T01:27:13.882Z,1008.28
2019-01-22T01:28:13.868Z,1008.32
2019-01-22T01:29:13.854Z,1008.29
2019-01-22T01:30:13.840Z,1008.29
2019-01-22T01:31:13.824Z,1008.25
2019-01-22T01:32:13.807Z,1008.27
2019-01-22T01:33:13.799Z,1008.22
2019-01-22T01:34:13.778Z,1008.21
2019-01-22T01:35:13.767Z,1008.15
2019-01-22T01:36:13.753Z,1008.14
2019-01-22T01:37:13.743Z,1008.12
2019-01-22T01:38:13.723Z,1008.08
2019-01-22T01:39:13.703Z,1008.07
2019-01-22T01:40:13.727Z,1008.07
2019-01-22T01:41:13.674Z,1007.99
2019-01-22T01:42:13.658Z,1007.96
2019-01-22T01:43:13.651Z,1007.96
2019-01-22T01:44:13.634Z,1007.94
2019-01-22T01:45:13.621Z,1007.88
2019-01-22T01:46:13.604Z,1007.88
2019-01-22T01:47:13.588Z,1007.85
2019-01-22T01:48:13.570Z,1007.85
2019-01-22T01:49:13.556Z,1007.82
2019-01-22T01:50:13.547Z,1007.81
2019-01-22T01:51:13.528Z,1007.82
2019-01-22T01:52:13.517Z,1007.82
2019-01-22T01:53:13.501Z,1007.81
2019-01-22T01:54:13.483Z,1007.75
2019-01-22T01:55:13.472Z,1007.74
2019-01-22T01:56:13.454Z,1007.73
2019-01-22T01:57:13.444Z,1007.71
2019-01-22T01:58:13.427Z,1007.75
2019-01-22T01:59:13.415Z,1007.74
2019-01-22T02:00:13.395Z,1007.65
2019-01-22T02:01:13.417Z,1007.68
2019-01-22T02:02:13.374Z,1007.63
2019-01-22T02:03:13.356Z,1007.63
2019-01-22T02:04:13.336Z,1007.60
2019-01-22T02:05:13.322Z,1007.62
2019-01-22T02:06:13.307Z,1007.58
2019-01-22T02:07:13.291Z,1007.57
2019-01-22T02:08:13.273Z,1007.55
2019-01-22T02:09:13.258Z,1007.52
2019-01-22T02:10:13.243Z,1007.53
2019-01-22T02:11:13.231Z,1007.47
2019-01-22T02:12:13.215Z,1007.46
2019-01-22T02:13:13.203Z,1007.42
2019-01-22T02:14:13.194Z,1007.43
2019-01-22T02:15:13.181Z,1007.41
2019-01-22T02:16:13.160Z,1007.41
2019-01-22T02:17:13.145Z,1007.43
2019-01-22T02:18:13.125Z,1007.40
2019-01-22T02:19:13.112Z,1007.42
2019-01-22T02:20:13.101Z,1007.41
2019-01-22T02:21:13.087Z,1007.41
2019-01-22T02:22:13.071Z,1007.37
2019-01-22T02:23:13.049Z,1007.38
2019-01-22T02:24:13.035Z,1007.34
2019-01-22T02:25:13.025Z,1007.30
2019-01-22T02:26:13.012Z,1007.24
2019-01-22T02:27:12.992Z,1007.19
2019-01-22T02:28:12.976Z,1007.23
2019-01-22T02:29:12.960Z,1007.17
2019-01-22T02:30:12.944Z,1007.18
2019-01-22T02:31:12.934Z,1007.13
2019-01-22T02:32:12.918Z,1007.13
2019-01-22T02:33:12.904Z,1007.11
2019-01-22T02:34:12.889Z,1007.09
2019-01-22T02:35:12.877Z,1007.07
2019-01-22T02:36:12.858Z,1007.03
2019-01-22T02:37:12.845Z,1007.00
2019-01-22T02:38:12.826Z,1007.01
2019-01-22T02:39:12.811Z,1006.99
2019-01-22T02:40:12.800Z,1006.95
2019-01-22T02:41:12.788Z,1006.93
2019-01-22T02:42:12.766Z,1006.93
2019-01-22T02:43:12.748Z,1006.93
2019-01-22T02:44:12.734Z,1006.90
2019-01-22T02:45:12.726Z,1006.87
2019-01-22T02:46:12.709Z,1006.85
2019-01-22T02:47:12.692Z,1006.81
2019-01-22T02:48:12.678Z,1006.81
2019-01-22T02:49:12.666Z,1006.74
2019-01-22T02:50:12.653Z,1006.78
2019-01-22T02:51:12.632Z,1006.69
2019-01-22T02:52:12.618Z,1006.71
2019-01-22T02:53:12.604Z,1006.66
2019-01-22T02:54:12.585Z,1006.65
2019-01-22T02:55:12.572Z,1006.61
2019-01-22T02:56:12.560Z,1006.63
2019-01-22T02:57:12.545Z,1006.58
2019-01-22T02:58:12.527Z,1006.59
2019-01-22T02:59:12.511Z,1006.55
2019-01-22T03:00:12.496Z,1006.51
2019-01-22T03:01:12.485Z,1006.47
2019-01-22T03:02:12.467Z,1006.45
2019-01-22T03:03:12.451Z,1006.40
2019-01-22T03:04:12.438Z,1006.38
2019-01-22T03:05:12.416Z,1006.37
2019-01-22T03:06:12.405Z,1006.38
2019-01-22T03:07:12.391Z,1006.42
2019-01-22T03:08:12.376Z,1006.40
2019-01-22T03:09:12.364Z,1006.40
2019-01-22T03:10:12.347Z,1006.37
2019-01-22T03:11:12.333Z,1006.34
2019-01-22T03:12:12.319Z,1006.32
2019-01-22T03:13:12.297Z,1006.30
2019-01-22T03:14:12.284Z,1006.29
2019-01-22T03:15:12.279Z,1006.28
2019-01-22T03:16:12.255Z,1006.27
2019-01-22T03:17:12.242Z,1006.25
2019-01-22T03:18:12.227Z,1006.25
2019-01-22T03:19:12.214Z,1006.25
2019-01-22T03:20:12.191Z,1006.22
2019-01-22T03:21:12.180Z,1006.23
2019-01-22T03:22:12.163Z,1006.20
2019-01-22T03:23:12.151Z,1006.22
2019-01-22T03:24:12.133Z,1006.20
2019-01-22T03:25:12.118Z,1006.18
2019-01-22T03:26:12.106Z,1006.20
2019-01-22T03:27:12.093Z,1006.16
2019-01-22T03:28:12.071Z,1006.13
2019-01-22T03:29:12.058Z,1006.13
2019-01-22T03:30:12.046Z,1006.11
2019-01-22T03:31:12.036Z,1006.09
2019-01-22T03:32:12.012Z,1006.06
2019-01-22T03:33:12.005Z,1006.06
2019-01-22T03:34:11.981Z,1006.02
2019-01-22T03:35:11.970Z,1006.00
2019-01-22T03:36:11.965Z,1006.03
2019-01-22T03:37:11.937Z,1006.01
2019-01-22T03:38:11.926Z,1005.99
2019-01-22T03:39:11.910Z,1005.99
2019-01-22T03:40:11.890Z,1005.96
2019-01-22T03:41:11.874Z,1005.96
2019-01-22T03:42:11.860Z,1005.94
2019-01-22T03:43:11.842Z,1005.94
2019-01-22T03:44:11.833Z,1005.93
2019-01-22T03:45:11.815Z,1005.90
2019-01-22T03:46:11.800Z,1005.86
2019-01-22T03:47:11.788Z,1005.91
2019-01-22T03:48:11.771Z,1005.88
2019-01-22T03:49:11.753Z,1005.85
2019-01-22T03:50:11.744Z,1005.85
2019-01-22T03:51:11.728Z,1005.83
2019-01-22T03:52:11.712Z,1005.84
2019-01-22T03:53:11.714Z,1005.84
2019-01-22T03:54:11.680Z,1005.83
2019-01-22T03:55:11.664Z,1005.80
2019-01-22T03:56:11.648Z,1005.78
2019-01-22T03:57:11.633Z,1005.74
2019-01-22T03:58:11.623Z,1005.74
2019-01-22T03:59:11.605Z,1005.72
2019-01-22T04:00:11.588Z,1005.70
2019-01-22T04:01:11.575Z,1005.70
2019-01-22T04:02:11.560Z,1005.62
2019-01-22T04:03:11.540Z,1005.63
2019-01-22T04:04:11.528Z,1005.58
2019-01-22T04:05:11.512Z,1005.59
2019-01-22T04:06:11.500Z,1005.57
2019-01-22T04:07:11.481Z,1005.57
2019-01-22T04:08:11.469Z,1005.53
2019-01-22T04:09:11.451Z,1005.56
2019-01-22T04:10:11.443Z,1005.48
2019-01-22T04:11:11.425Z,1005.47
2019-01-22T04:12:11.405Z,1005.47
2019-01-22T04:13:11.389Z,1005.44
2019-01-22T04:14:11.379Z,1005.41
2019-01-22T04:15:11.359Z,1005.40
2019-01-22T04:16:11.346Z,1005.36
2019-01-22T04:17:11.350Z,1005.32
2019-01-22T04:18:11.308Z,1005.29
2019-01-22T04:19:11.292Z,1005.30
2019-01-22T04:20:11.283Z,1005.26
2019-01-22T04:21:11.269Z,1005.24
2019-01-22T04:22:11.249Z,1005.25
2019-01-22T04:23:11.231Z,1005.26
2019-01-22T04:24:11.216Z,1005.22
2019-01-22T04:25:11.205Z,1005.19
2019-01-22T04:26:11.192Z,1005.21
2019-01-22T04:27:11.184Z,1005.12
2019-01-22T04:28:11.159Z,1005.12
2019-01-22T04:29:11.146Z,1005.12
2019-01-22T04:30:11.129Z,1005.08
2019-01-22T04:31:11.113Z,1005.04
2019-01-22T04:32:11.093Z,1005.00
2019-01-22T04:33:11.081Z,1004.99
2019-01-22T04:34:11.068Z,1004.97
2019-01-22T04:35:11.052Z,1004.99
2019-01-22T04:36:11.031Z,1004.97
2019-01-22T04:37:11.021Z,1004.92
2019-01-22T04:38:11.000Z,1004.95
2019-01-22T04:39:10.992Z,1004.93
2019-01-22T04:40:10.971Z,1004.89
2019-01-22T04:41:10.957Z,1004.89
2019-01-22T04:42:10.939Z,1004.86
2019-01-22T04:43:10.923Z,1004.87
2019-01-22T04:44:10.910Z,1004.87
2019-01-22T04:45:10.889Z,1004.85
2019-01-22T04:46:10.882Z,1004.85
2019-01-22T04:47:10.863Z,1004.81
2019-01-22T04:48:10.856Z,1004.85
2019-01-22T04:49:10.831Z,1004.74
2019-01-22T04:50:10.816Z,1004.75
2019-01-22T04:51:10.800Z,1004.78
2019-01-22T04:52:10.791Z,1004.74
2019-01-22T04:53:10.770Z,1004.74
2019-01-22T04:54:10.750Z,1004.68
2019-01-22T04:55:10.738Z,1004.67
2019-01-22T04:56:10.721Z,1004.69
2019-01-22T04:57:10.707Z,1004.60
2019-01-22T04:58:10.726Z,1004.54
2019-01-22T04:59:10.673Z,1004.53
2019-01-22T05:00:10.657Z,1004.49
2019-01-22T05:01:10.647Z,1004.50
2019-01-22T05:02:10.634Z,1004.51
2019-01-22T05:03:10.616Z,1004.48
2019-01-22T05:04:10.593Z,1004.49
2019-01-22T05:05:10.585Z,1004.49
2019-01-22T05:06:10.567Z,1004.45
2019-01-22T05:07:10.543Z,1004.47
2019-01-22T05:08:10.533Z,1004.49
2019-01-22T05:09:10.524Z,1004.46
2019-01-22T05:10:10.508Z,1004.44
2019-01-22T05:11:10.483Z,1004.48
2019-01-22T05:12:10.467Z,1004.52
2019-01-22T05:13:10.453Z,1004.50
2019-01-22T05:14:10.441Z,1004.43
2019-01-22T05:15:10.423Z,1004.45
2019-01-22T05:16:10.412Z,1004.42
2019-01-22T05:17:10.397Z,1004.36
2019-01-22T05:18:10.380Z,1004.39
2019-01-22T05:19:10.360Z,1004.36
2019-01-22T05:20:10.344Z,1004.35
2019-01-22T05:21:10.330Z,1004.33
2019-01-22T05:22:10.312Z,1004.32
2019-01-22T05:23:10.301Z,1004.29
2019-01-22T05:24:17.400Z,1004.28
2019-01-22T05:25:10.266Z,1004.32
2019-01-22T05:26:10.251Z,1004.32
2019-01-22T05:27:10.232Z,1004.29
2019-01-22T05:28:10.710Z,1004.32
2019-01-22T05:29:10.207Z,1004.32
2019-01-22T05:30:10.189Z,1004.29
2019-01-22T05:31:10.180Z,1004.29
2019-01-22T05:32:10.157Z,1004.32
2019-01-22T05:33:10.135Z,1004.27
2019-01-22T05:34:10.121Z,1004.29
2019-01-22T05:35:10.102Z,1004.28
2019-01-22T05:36:10.089Z,1004.22
2019-01-22T05:37:10.074Z,1004.22
2019-01-22T05:38:10.059Z,1004.22
2019-01-22T05:39:10.045Z,1004.19
2019-01-22T05:40:10.027Z,1004.26
2019-01-22T05:41:10.010Z,1004.23
2019-01-22T05:42:09.991Z,1004.22
2019-01-22T05:43:09.976Z,1004.23
2019-01-22T05:44:09.964Z,1004.20
2019-01-22T05:45:09.947Z,1004.18
2019-01-22T05:46:09.933Z,1004.16
2019-01-22T05:47:09.916Z,1004.19
2019-01-22T05:48:13.418Z,1004.13
2019-01-22T05:49:09.884Z,1004.16
2019-01-22T05:50:09.872Z,1004.14
2019-01-22T05:51:09.847Z,1004.14
2019-01-22T05:52:09.835Z,1004.12
2019-01-22T05:53:09.825Z,1004.14
2019-01-22T05:54:09.804Z,1004.10
2019-01-22T05:55:09.789Z,1004.09
2019-01-22T05:56:09.773Z,1004.09
2019-01-22T05:57:09.755Z,1004.07
2019-01-22T05:58:09.739Z,1004.03
2019-01-22T05:59:09.725Z,1004.03
2019-01-22T06:00:09.709Z,1004.01
2019-01-22T06:01:09.696Z,1004.01
2019-01-22T06:02:09.677Z,1003.96
2019-01-22T06:03:09.660Z,1003.98
2019-01-22T06:04:09.648Z,1003.96
2019-01-22T06:05:09.627Z,1003.94
2019-01-22T06:06:09.618Z,1003.89
2019-01-22T06:07:09.597Z,1003.89
2019-01-22T06:08:09.587Z,1003.87
2019-01-22T06:09:09.567Z,1003.89
2019-01-22T06:10:09.546Z,1003.84
2019-01-22T06:11:09.561Z,1003.85
2019-01-22T06:12:09.519Z,1003.82
2019-01-22T06:13:09.499Z,1003.84
2019-01-22T06:14:09.488Z,1003.80
2019-01-22T06:15:09.477Z,1003.78
2019-01-22T06:16:09.454Z,1003.83
2019-01-22T06:17:09.446Z,1003.77
2019-01-22T06:18:09.420Z,1003.77
2019-01-22T06:19:09.414Z,1003.80
2019-01-22T06:20:09.391Z,1003.80
2019-01-22T06:21:09.380Z,1003.80
2019-01-22T06:22:09.365Z,1003.79
2019-01-22T06:23:09.348Z,1003.76
2019-01-22T06:24:09.326Z,1003.73
2019-01-22T06:25:09.310Z,1003.72
2019-01-22T06:26:09.293Z,1003.71
2019-01-22T06:27:09.278Z,1003.67
2019-01-22T06:28:09.278Z,1003.67
2019-01-22T06:29:09.248Z,1003.65
2019-01-22T06:30:09.242Z,1003.63
2019-01-22T06:31:09.219Z,1003.59
2019-01-22T06:32:09.198Z,1003.56
2019-01-22T06:33:09.182Z,1003.53
2019-01-22T06:34:09.168Z,1003.56
2019-01-22T06:35:09.156Z,1003.53
2019-01-22T06:36:09.140Z,1003.50
2019-01-22T06:37:09.123Z,1003.47
2019-01-22T06:38:09.110Z,1003.45
2019-01-22T06:39:09.083Z,1003.49
2019-01-22T06:40:09.072Z,1003.45
2019-01-22T06:41:09.059Z,1003.43
2019-01-22T06:42:09.047Z,1003.43
2019-01-22T06:43:09.076Z,1003.42
2019-01-22T06:44:09.015Z,1003.39
2019-01-22T06:45:08.999Z,1003.39
2019-01-22T06:46:08.975Z,1003.33
2019-01-22T06:47:08.966Z,1003.33
2019-01-22T06:48:08.953Z,1003.25
2019-01-22T06:49:08.935Z,1003.29
2019-01-22T06:50:08.920Z,1003.28
2019-01-22T06:51:08.900Z,1003.27
2019-01-22T06:52:08.885Z,1003.26
2019-01-22T06:53:08.869Z,1003.27
2019-01-22T06:54:08.856Z,1003.28
2019-01-22T06:55:08.833Z,1003.27
2019-01-22T06:56:08.822Z,1003.24
2019-01-22T06:57:08.804Z,1003.22
2019-01-22T06:58:08.799Z,1003.19
2019-01-22T06:59:08.774Z,1003.17
2019-01-22T07:00:08.761Z,1003.17
2019-01-22T07:01:08.747Z,1003.16
2019-01-22T07:02:08.736Z,1003.13
2019-01-22T07:03:08.709Z,1003.10
2019-01-22T07:04:08.715Z,1003.09
2019-01-22T07:05:08.679Z,1003.13
2019-01-22T07:06:08.661Z,1003.08
2019-01-22T07:07:08.643Z,1003.04
2019-01-22T07:08:08.626Z,1003.01
2019-01-22T07:09:08.616Z,1002.97
2019-01-22T07:10:08.606Z,1003.01
2019-01-22T07:11:08.581Z,1002.98
2019-01-22T07:12:08.565Z,1002.95
2019-01-22T07:13:08.549Z,1002.96
2019-01-22T07:14:08.528Z,1002.93
2019-01-22T07:15:08.519Z,1002.91
2019-01-22T07:16:08.501Z,1002.90
2019-01-22T07:17:08.486Z,1002.90
2019-01-22T07:18:08.469Z,1002.90
2019-01-22T07:19:08.454Z,1002.88
2019-01-22T07:20:08.443Z,1002.88
2019-01-22T07:21:08.423Z,1002.86
2019-01-22T07:22:08.407Z,1002.86
2019-01-22T07:23:08.385Z,1002.87
2019-01-22T07:24:08.375Z,1002.82
2019-01-22T07:25:08.357Z,1002.81
2019-01-22T07:26:08.347Z,1002.79
2019-01-22T07:27:08.329Z,1002.76
2019-01-22T07:28:08.306Z,1002.75
2019-01-22T07:29:08.293Z,1002.72
2019-01-22T07:30:08.275Z,1002.74
2019-01-22T07:31:08.266Z,1002.69
2019-01-22T07:32:08.252Z,1002.65
2019-01-22T07:33:08.231Z,1002.67
2019-01-22T07:34:08.213Z,1002.68
2019-01-22T07:35:08.199Z,1002.65
2019-01-22T07:36:08.184Z,1002.61
2019-01-22T07:37:08.168Z,1002.59
2019-01-22T07:38:08.151Z,1002.60
2019-01-22T07:39:08.136Z,1002.51
2019-01-22T07:40:08.119Z,1002.54
2019-01-22T07:41:08.105Z,1002.52
2019-01-22T07:42:08.086Z,1002.50
2019-01-22T07:43:08.486Z,1002.50
2019-01-22T07:44:08.055Z,1002.46
2019-01-22T07:45:08.040Z,1002.50
2019-01-22T07:46:08.056Z,1002.48
2019-01-22T07:47:08.010Z,1002.47
2019-01-22T07:48:07.996Z,1002.46
2019-01-22T07:49:07.973Z,1002.47
2019-01-22T07:50:07.963Z,1002.42
2019-01-22T07:51:07.941Z,1002.43
2019-01-22T07:52:07.931Z,1002.42
2019-01-22T07:53:07.915Z,1002.36
2019-01-22T07:54:07.906Z,1002.40
2019-01-22T07:55:07.881Z,1002.36
2019-01-22T07:56:07.967Z,1002.36
2019-01-22T07:57:07.850Z,1002.35
2019-01-22T07:58:07.875Z,1002.32
2019-01-22T07:59:07.817Z,1002.31
2019-01-22T08:00:07.804Z,1002.33
2019-01-22T08:01:07.786Z,1002.33
2019-01-22T08:02:07.806Z,1002.29
2019-01-22T08:03:07.757Z,1002.29
2019-01-22T08:04:07.737Z,1002.26
2019-01-22T08:05:07.731Z,1002.27
2019-01-22T08:06:07.704Z,1002.27
2019-01-22T08:07:07.691Z,1002.26
2019-01-22T08:08:07.679Z,1002.25
2019-01-22T08:09:07.661Z,1002.28
2019-01-22T08:10:07.648Z,1002.26
2019-01-22T08:11:07.628Z,1002.24
2019-01-22T08:12:07.613Z,1002.25
2019-01-22T08:13:07.604Z,1002.26
2019-01-22T08:14:07.588Z,1002.21
2019-01-22T08:15:07.577Z,1002.21
2019-01-22T08:16:07.555Z,1002.22
2019-01-22T08:17:07.542Z,1002.22
2019-01-22T08:18:07.526Z,1002.22
2019-01-22T08:19:08.045Z,1002.21
2019-01-22T08:20:07.497Z,1002.23
2019-01-22T08:21:07.486Z,1002.22
2019-01-22T08:22:07.528Z,1002.30
2019-01-22T08:23:07.451Z,1002.22
2019-01-22T08:24:07.434Z,1002.23
2019-01-22T08:25:07.422Z,1002.27
2019-01-22T08:26:07.408Z,1002.22
2019-01-22T08:27:07.391Z,1002.22
2019-01-22T08:28:07.373Z,1002.17
2019-01-22T08:29:07.401Z,1002.15
2019-01-22T08:30:07.343Z,1002.15
2019-01-22T08:31:07.324Z,1002.11
2019-01-22T08:32:07.318Z,1002.08
2019-01-22T08:33:07.300Z,1002.08
2019-01-22T08:34:07.287Z,1002.08
2019-01-22T08:35:07.277Z,1002.05
2019-01-22T08:36:07.259Z,1002.01
2019-01-22T08:37:07.243Z,1002.01
2019-01-22T08:38:07.228Z,1002.02
2019-01-22T08:39:07.210Z,1002.00
2019-01-22T08:40:07.195Z,1002.04
2019-01-22T08:41:07.182Z,1002.01
2019-01-22T08:42:07.189Z,1002.00
2019-01-22T08:43:07.154Z,1001.94
2019-01-22T08:44:07.141Z,1001.96
2019-01-22T08:45:07.122Z,1001.91
2019-01-22T08:46:07.107Z,1001.96
2019-01-22T08:47:07.097Z,1001.88
2019-01-22T08:48:07.085Z,1001.92
2019-01-22T08:49:07.069Z,1001.88
2019-01-22T08:50:07.054Z,1001.88
2019-01-22T08:51:07.038Z,1001.87
2019-01-22T08:52:07.027Z,1001.92
2019-01-22T08:53:07.012Z,1001.90
2019-01-22T08:54:07.001Z,1001.87
2019-01-22T08:55:08.299Z,1001.86
2019-01-22T08:56:06.971Z,1001.88
2019-01-22T08:57:06.958Z,1001.81
2019-01-22T08:58:06.941Z,1001.84
2019-01-22T08:59:06.933Z,1001.76
2019-01-22T09:00:06.918Z,1001.80
2019-01-22T09:01:06.912Z,1001.79
2019-01-22T09:02:06.897Z,1001.85
2019-01-22T09:03:06.881Z,1001.80
2019-01-22T09:04:06.869Z,1001.81
2019-01-22T09:05:06.858Z,1001.80
2019-01-22T09:06:06.845Z,1001.77
2019-01-22T09:07:06.830Z,1001.78
2019-01-22T09:08:09.842Z,1001.78
2019-01-22T09:09:06.809Z,1001.77
2019-01-22T09:10:06.792Z,1001.74
2019-01-22T09:11:06.781Z,1001.73
2019-01-22T09:12:06.765Z,1001.69
2019-01-22T09:13:06.752Z,1001.71
2019-01-22T09:14:06.744Z,1001.67
2019-01-22T09:15:06.735Z,1001.63
2019-01-22T09:16:06.787Z,1001.58
2019-01-22T09:17:06.706Z,1001.60
2019-01-22T09:18:06.745Z,1001.57
2019-01-22T09:19:06.720Z,1001.57
2019-01-22T09:20:06.675Z,1001.56
2019-01-22T09:21:06.662Z,1001.57
2019-01-22T09:22:06.647Z,1001.57
2019-01-22T09:23:06.633Z,1001.51
2019-01-22T09:24:06.622Z,1001.51
2019-01-22T09:25:06.613Z,1001.50
2019-01-22T09:26:06.597Z,1001.50
2019-01-22T09:27:06.584Z,1001.48
2019-01-22T09:28:06.572Z,1001.50
2019-01-22T09:29:06.563Z,1001.45
2019-01-22T09:30:06.555Z,1001.43
2019-01-22T09:31:06.540Z,1001.38
2019-01-22T09:32:06.531Z,1001.43
2019-01-22T09:33:06.518Z,1001.36
2019-01-22T09:34:06.501Z,1001.37
2019-01-22T09:35:10.526Z,1001.37
2019-01-22T09:36:06.476Z,1001.33
2019-01-22T09:37:06.467Z,1001.29
2019-01-22T09:38:06.484Z,1001.30
2019-01-22T09:39:06.445Z,1001.33
2019-01-22T09:40:06.431Z,1001.31
2019-01-22T09:41:06.418Z,1001.23
2019-01-22T09:42:06.413Z,1001.19
2019-01-22T09:43:06.398Z,1001.19
2019-01-22T09:44:06.385Z,1001.18
2019-01-22T09:45:06.375Z,1001.19
2019-01-22T09:46:06.361Z,1001.23
2019-01-22T09:47:06.351Z,1001.22
2019-01-22T09:48:06.365Z,1001.15
2019-01-22T09:49:06.331Z,1001.14
2019-01-22T09:50:06.315Z,1001.14
2019-01-22T09:51:06.302Z,1001.16
2019-01-22T09:52:06.286Z,1001.18
2019-01-22T09:53:06.279Z,1001.11
2019-01-22T09:54:06.264Z,1001.11
2019-01-22T09:55:06.271Z,1001.10
2019-01-22T09:56:06.242Z,1001.08
2019-01-22T09:57:06.229Z,1001.09
2019-01-22T09:58:06.220Z,1001.04
2019-01-22T09:59:06.204Z,1000.98
2019-01-22T10:00:06.191Z,1000.99
2019-01-22T10:01:06.183Z,1000.95
2019-01-22T10:02:06.166Z,1000.86
2019-01-22T10:03:06.151Z,1000.85
2019-01-22T10:04:06.141Z,1000.82
2019-01-22T10:05:06.134Z,1000.83
2019-01-22T10:06:06.122Z,1000.78
2019-01-22T10:07:06.107Z,1000.83
2019-01-22T10:08:06.098Z,1000.79
2019-01-22T10:09:06.083Z,1000.77
2019-01-22T10:10:06.071Z,1000.77
2019-01-22T10:11:06.059Z,1000.75
2019-01-22T10:12:06.046Z,1000.77
2019-01-22T10:13:06.039Z,1000.67
2019-01-22T10:14:06.027Z,1000.67
2019-01-22T10:15:06.011Z,1000.68
2019-01-22T10:16:05.999Z,1000.67
2019-01-22T10:17:05.991Z,1000.71
2019-01-22T10:18:05.976Z,1000.69
2019-01-22T10:19:05.964Z,1000.59
2019-01-22T10:20:05.953Z,1000.64
2019-01-22T10:21:05.938Z,1000.57
2019-01-22T10:22:05.930Z,1000.52
2019-01-22T10:23:05.918Z,1000.53
2019-01-22T10:24:05.908Z,1000.48
2019-01-22T10:25:05.899Z,1000.46
2019-01-22T10:26:05.883Z,1000.45
2019-01-22T10:27:05.872Z,1000.55
2019-01-22T10:28:05.862Z,1000.44
2019-01-22T10:29:05.851Z,1000.41
2019-01-22T10:30:05.837Z,1000.38
2019-01-22T10:31:05.834Z,1000.33
2019-01-22T10:32:05.819Z,1000.28
2019-01-22T10:33:05.803Z,1000.28
2019-01-22T10:34:05.797Z,1000.27
2019-01-22T10:35:05.781Z,1000.25
2019-01-22T10:36:05.773Z,1000.23
2019-01-22T10:37:05.765Z,1000.28
2019-01-22T10:38:05.777Z,1000.21
2019-01-22T10:39:05.732Z,1000.22
2019-01-22T10:40:05.728Z,1000.26
2019-01-22T10:41:05.719Z,1000.23
2019-01-22T10:42:05.711Z,1000.22
2019-01-22T10:43:09.369Z,1000.20
2019-01-22T10:44:05.683Z,1000.19
2019-01-22T10:45:05.671Z,1000.14
2019-01-22T10:46:05.659Z,1000.12
2019-01-22T10:47:05.650Z,1000.03
2019-01-22T10:48:05.639Z,1000.04
2019-01-22T10:49:05.627Z,1000.01
2019-01-22T10:50:05.622Z,1000.00
2019-01-22T10:51:05.605Z,999.97
2019-01-22T10:52:05.593Z,999.94
2019-01-22T10:53:05.629Z,999.93
2019-01-22T10:54:05.572Z,999.89
2019-01-22T10:55:05.558Z,999.87
2019-01-22T10:56:05.550Z,999.82
2019-01-22T10:57:05.538Z,999.78
2019-01-22T10:58:08.696Z,999.75
2019-01-22T10:59:05.509Z,999.77
2019-01-22T11:00:05.505Z,999.73
2019-01-22T11:01:05.494Z,999.73
2019-01-22T11:02:05.488Z,999.70
2019-01-22T11:03:05.476Z,999.69
2019-01-22T11:04:05.459Z,999.67
2019-01-22T11:05:05.451Z,999.67
2019-01-22T11:06:05.445Z,999.62
2019-01-22T11:07:05.426Z,999.64
2019-01-22T11:08:05.412Z,999.59
2019-01-22T11:09:05.404Z,999.55
2019-01-22T11:10:05.389Z,999.54
2019-01-22T11:11:05.379Z,999.57
2019-01-22T11:12:05.370Z,999.63
2019-01-22T11:13:05.378Z,999.59
2019-01-22T11:14:05.343Z,999.56
2019-01-22T11:15:05.335Z,999.59
2019-01-22T11:16:05.321Z,999.56
2019-01-22T11:17:05.312Z,999.61
2019-01-22T11:18:05.312Z,999.55
2019-01-22T11:19:05.294Z,999.47
2019-01-22T11:20:05.281Z,999.66
2019-01-22T11:21:05.265Z,999.55
2019-01-22T11:22:05.253Z,999.55
2019-01-22T11:23:05.245Z,999.52
2019-01-22T11:24:05.236Z,999.46
2019-01-22T11:25:05.223Z,999.45
2019-01-22T11:26:05.213Z,999.45
2019-01-22T11:27:05.198Z,999.39
2019-01-22T11:28:05.191Z,999.37
2019-01-22T11:29:05.177Z,999.36
2019-01-22T11:30:05.170Z,999.27
2019-01-22T11:31:05.155Z,999.25
2019-01-22T11:32:05.144Z,999.26
2019-01-22T11:33:05.136Z,999.23
2019-01-22T11:34:05.122Z,999.21
2019-01-22T11:35:05.110Z,999.19
2019-01-22T11:36:05.101Z,999.17
2019-01-22T11:37:05.086Z,999.22
2019-01-22T11:38:05.079Z,999.14
2019-01-22T11:39:05.069Z,999.13
2019-01-22T11:40:05.061Z,999.15
2019-01-22T11:41:05.047Z,999.16
2019-01-22T11:42:05.032Z,999.10
2019-01-22T11:43:05.020Z,999.09
2019-01-22T11:44:05.009Z,999.04
2019-01-22T11:45:05.000Z,999.03
2019-01-22T11:46:04.995Z,999.06
2019-01-22T11:47:04.979Z,999.01
2019-01-22T11:48:04.967Z,998.97
2019-01-22T11:49:04.955Z,998.98
2019-01-22T11:50:04.944Z,998.98
2019-01-22T11:51:04.942Z,998.94
2019-01-22T11:52:04.936Z,998.96
2019-01-22T11:53:04.921Z,998.90
2019-01-22T11:54:04.912Z,998.88
2019-01-22T11:55:04.893Z,998.88
2019-01-22T11:56:04.888Z,998.92
2019-01-22T11:57:04.869Z,998.87
2019-01-22T11:58:04.866Z,998.86
2019-01-22T11:59:04.854Z,998.86
2019-01-22T12:00:04.847Z,998.73
2019-01-22T12:01:04.833Z,998.78
2019-01-22T12:02:04.827Z,998.75
2019-01-22T12:03:04.813Z,998.73
2019-01-22T12:04:04.803Z,998.71
2019-01-22T12:05:04.801Z,998.73
2019-01-22T12:06:04.780Z,998.70
2019-01-22T12:07:04.777Z,998.67
2019-01-22T12:08:04.763Z,998.65